sensor_id;sensor_type;location;lat;lon;timestamp;temperature;humidity
24017;DHT22;12222;50.090;19.702;2022-11-06T00:02:57;7.80;99.90
24017;DHT22;12222;50.090;19.702;2022-11-06T00:08:00;7.80;99.90
24017;DHT22;12222;50.090;19.702;2022-11-06T00:13:02;7.80;99.90
24017;DHT22;12222;50.090;19.702;2022-11-06T00:18:04;7.80;99.90
24017;DHT22;12222;50.090;19.702;2022-11-06T00:23:06;7.80;99.90
24017;DHT22;12222;50.090;19.702;2022-11-06T00:28:08;7.70;99.90
24017;DHT22;12222;50.090;19.702;2022-11-06T00:33:10;7.80;99.90
24017;DHT22;12222;50.090;19.702;2022-11-06T00:38:12;7.70;99.90
24017;DHT22;12222;50.090;19.702;2022-11-06T00:43:14;7.80;99.90
24017;DHT22;12222;50.090;19.702;2022-11-06T00:48:16;7.60;99.90
24017;DHT22;12222;50.090;19.702;2022-11-06T00:53:18;7.70;99.90
24017;DHT22;12222;50.090;19.702;2022-11-06T00:58:20;7.70;99.90
24017;DHT22;12222;50.090;19.702;2022-11-06T01:03:22;7.70;99.90
24017;DHT22;12222;50.090;19.702;2022-11-06T01:08:23;7.70;99.90
24017;DHT22;12222;50.090;19.702;2022-11-06T01:13:25;7.80;99.90
24017;DHT22;12222;50.090;19.702;2022-11-06T01:18:27;7.80;99.90
24017;DHT22;12222;50.090;19.702;2022-11-06T01:23:29;7.80;99.90
24017;DHT22;12222;50.090;19.702;2022-11-06T01:28:31;7.90;99.90
24017;DHT22;12222;50.090;19.702;2022-11-06T01:33:33;7.80;99.90
24017;DHT22;12222;50.090;19.702;2022-11-06T01:38:35;7.80;99.90
24017;DHT22;12222;50.090;19.702;2022-11-06T01:43:50;7.80;99.90
24017;DHT22;12222;50.090;19.702;2022-11-06T01:49:07;7.80;99.90
24017;DHT22;12222;50.090;19.702;2022-11-06T01:54:11;7.70;99.90
24017;DHT22;12222;50.090;19.702;2022-11-06T01:59:15;7.80;99.90
24017;DHT22;12222;50.090;19.702;2022-11-06T02:04:31;7.80;99.90
24017;DHT22;12222;50.090;19.702;2022-11-06T02:09:33;7.70;99.90
24017;DHT22;12222;50.090;19.702;2022-11-06T02:20:33;7.60;99.90
24017;DHT22;12222;50.090;19.702;2022-11-06T02:30:47;7.50;99.90
24017;DHT22;12222;50.090;19.702;2022-11-06T02:35:55;7.40;99.90
24017;DHT22;12222;50.090;19.702;2022-11-06T02:41:02;7.40;99.90
24017;DHT22;12222;50.090;19.702;2022-11-06T02:46:09;7.40;99.90
24017;DHT22;12222;50.090;19.702;2022-11-06T02:51:14;7.40;99.90
24017;DHT22;12222;50.090;19.702;2022-11-06T02:56:22;7.50;99.90
24017;DHT22;12222;50.090;19.702;2022-11-06T03:01:32;7.70;99.90
24017;DHT22;12222;50.090;19.702;2022-11-06T03:06:39;7.50;99.90
24017;DHT22;12222;50.090;19.702;2022-11-06T03:11:42;7.40;99.90
24017;DHT22;12222;50.090;19.702;2022-11-06T03:21:56;7.40;99.90
24017;DHT22;12222;50.090;19.702;2022-11-06T03:27:03;7.50;99.90
24017;DHT22;12222;50.090;19.702;2022-11-06T03:32:29;7.50;99.90
24017;DHT22;12222;50.090;19.702;2022-11-06T03:37:41;7.20;99.90
24017;DHT22;12222;50.090;19.702;2022-11-06T03:42:47;7.10;99.90
24017;DHT22;12222;50.090;19.702;2022-11-06T03:47:54;7.00;99.90
24017;DHT22;12222;50.090;19.702;2022-11-06T03:53:07;7.00;99.90
24017;DHT22;12222;50.090;19.702;2022-11-06T03:58:19;7.00;99.90
24017;DHT22;12222;50.090;19.702;2022-11-06T04:03:44;6.90;99.90
24017;DHT22;12222;50.090;19.702;2022-11-06T04:08:51;7.00;99.90
24017;DHT22;12222;50.090;19.702;2022-11-06T04:14:14;7.00;99.90
24017;DHT22;12222;50.090;19.702;2022-11-06T04:19:18;7.10;99.90
24017;DHT22;12222;50.090;19.702;2022-11-06T04:30:13;6.80;99.90
24017;DHT22;12222;50.090;19.702;2022-11-06T04:35:33;6.70;99.90
24017;DHT22;12222;50.090;19.702;2022-11-06T04:46:01;6.60;99.90
24017;DHT22;12222;50.090;19.702;2022-11-06T04:51:07;6.60;99.90
24017;DHT22;12222;50.090;19.702;2022-11-06T04:56:24;6.60;99.90
24017;DHT22;12222;50.090;19.702;2022-11-06T05:01:30;6.80;99.90
24017;DHT22;12222;50.090;19.702;2022-11-06T05:06:32;6.90;99.90
24017;DHT22;12222;50.090;19.702;2022-11-06T05:11:34;6.80;99.90
24017;DHT22;12222;50.090;19.702;2022-11-06T05:16:36;6.70;99.90
24017;DHT22;12222;50.090;19.702;2022-11-06T05:21:38;6.80;99.90
24017;DHT22;12222;50.090;19.702;2022-11-06T05:26:58;6.70;99.90
24017;DHT22;12222;50.090;19.702;2022-11-06T05:32:00;6.60;99.90
24017;DHT22;12222;50.090;19.702;2022-11-06T05:37:02;6.50;99.90
24017;DHT22;12222;50.090;19.702;2022-11-06T05:42:04;6.40;99.90
24017;DHT22;12222;50.090;19.702;2022-11-06T05:47:06;6.40;99.90
24017;DHT22;12222;50.090;19.702;2022-11-06T05:52:08;6.50;99.90
24017;DHT22;12222;50.090;19.702;2022-11-06T05:57:10;6.70;99.90
24017;DHT22;12222;50.090;19.702;2022-11-06T06:02:12;6.70;99.90
24017;DHT22;12222;50.090;19.702;2022-11-06T06:07:14;6.70;99.90
24017;DHT22;12222;50.090;19.702;2022-11-06T06:12:16;6.70;99.90
24017;DHT22;12222;50.090;19.702;2022-11-06T06:17:18;6.70;99.90
24017;DHT22;12222;50.090;19.702;2022-11-06T06:22:20;6.80;99.90
24017;DHT22;12222;50.090;19.702;2022-11-06T06:27:23;7.00;99.90
24017;DHT22;12222;50.090;19.702;2022-11-06T06:32:28;7.00;99.90
24017;DHT22;12222;50.090;19.702;2022-11-06T06:37:29;7.00;99.90
24017;DHT22;12222;50.090;19.702;2022-11-06T06:42:31;7.30;99.90
24017;DHT22;12222;50.090;19.702;2022-11-06T06:47:33;7.40;99.90
24017;DHT22;12222;50.090;19.702;2022-11-06T06:52:35;7.50;99.90
24017;DHT22;12222;50.090;19.702;2022-11-06T06:57:37;7.70;99.90
24017;DHT22;12222;50.090;19.702;2022-11-06T07:02:39;7.80;99.90
24017;DHT22;12222;50.090;19.702;2022-11-06T07:07:41;7.90;99.90
24017;DHT22;12222;50.090;19.702;2022-11-06T07:12:43;8.20;99.90
24017;DHT22;12222;50.090;19.702;2022-11-06T07:17:45;8.40;99.90
24017;DHT22;12222;50.090;19.702;2022-11-06T07:22:47;8.20;99.90
24017;DHT22;12222;50.090;19.702;2022-11-06T07:27:49;8.10;99.90
24017;DHT22;12222;50.090;19.702;2022-11-06T07:32:50;8.10;99.90
24017;DHT22;12222;50.090;19.702;2022-11-06T07:37:52;8.00;99.90
24017;DHT22;12222;50.090;19.702;2022-11-06T07:42:54;8.20;99.90
24017;DHT22;12222;50.090;19.702;2022-11-06T07:47:56;8.30;99.90
24017;DHT22;12222;50.090;19.702;2022-11-06T07:53:01;8.10;99.90
24017;DHT22;12222;50.090;19.702;2022-11-06T07:58:03;8.40;99.90
24017;DHT22;12222;50.090;19.702;2022-11-06T08:03:05;8.80;99.90
24017;DHT22;12222;50.090;19.702;2022-11-06T08:08:08;8.80;99.90
24017;DHT22;12222;50.090;19.702;2022-11-06T08:13:10;9.00;99.90
24017;DHT22;12222;50.090;19.702;2022-11-06T08:18:13;9.00;99.90
24017;DHT22;12222;50.090;19.702;2022-11-06T08:23:15;9.00;99.90
24017;DHT22;12222;50.090;19.702;2022-11-06T08:28:17;8.70;99.90
24017;DHT22;12222;50.090;19.702;2022-11-06T08:33:22;8.50;99.90
24017;DHT22;12222;50.090;19.702;2022-11-06T08:38:24;8.50;99.90
24017;DHT22;12222;50.090;19.702;2022-11-06T08:43:26;8.70;99.90
24017;DHT22;12222;50.090;19.702;2022-11-06T08:48:28;8.60;99.90
24017;DHT22;12222;50.090;19.702;2022-11-06T08:53:30;8.70;99.90
24017;DHT22;12222;50.090;19.702;2022-11-06T08:58:32;8.80;99.90
24017;DHT22;12222;50.090;19.702;2022-11-06T09:03:34;8.70;99.90
24017;DHT22;12222;50.090;19.702;2022-11-06T09:08:36;8.60;99.90
24017;DHT22;12222;50.090;19.702;2022-11-06T09:13:38;8.50;99.90
24017;DHT22;12222;50.090;19.702;2022-11-06T09:18:40;8.40;99.90
24017;DHT22;12222;50.090;19.702;2022-11-06T09:23:41;8.40;99.90
24017;DHT22;12222;50.090;19.702;2022-11-06T09:28:45;8.40;99.90
24017;DHT22;12222;50.090;19.702;2022-11-06T09:33:47;8.40;99.90
24017;DHT22;12222;50.090;19.702;2022-11-06T09:38:49;8.80;99.90
24017;DHT22;12222;50.090;19.702;2022-11-06T09:44:26;8.90;99.90
24017;DHT22;12222;50.090;19.702;2022-11-06T09:49:45;9.00;99.90
24017;DHT22;12222;50.090;19.702;2022-11-06T09:55:04;9.40;99.90
24017;DHT22;12222;50.090;19.702;2022-11-06T10:00:15;10.00;99.90
24017;DHT22;12222;50.090;19.702;2022-11-06T10:05:26;10.50;99.90
24017;DHT22;12222;50.090;19.702;2022-11-06T10:21:47;10.30;99.90
24017;DHT22;12222;50.090;19.702;2022-11-06T10:26:55;9.80;99.90
24017;DHT22;12222;50.090;19.702;2022-11-06T10:37:28;10.00;99.90
24017;DHT22;12222;50.090;19.702;2022-11-06T10:42:35;10.20;99.90
24017;DHT22;12222;50.090;19.702;2022-11-06T10:47:51;9.70;99.90
24017;DHT22;12222;50.090;19.702;2022-11-06T10:53:03;9.70;99.90
24017;DHT22;12222;50.090;19.702;2022-11-06T10:58:18;9.40;99.90
24017;DHT22;12222;50.090;19.702;2022-11-06T11:03:31;9.90;99.90
24017;DHT22;12222;50.090;19.702;2022-11-06T11:08:38;9.60;99.90
24017;DHT22;12222;50.090;19.702;2022-11-06T11:24:25;8.80;99.90
24017;DHT22;12222;50.090;19.702;2022-11-06T11:29:31;9.00;99.90
24017;DHT22;12222;50.090;19.702;2022-11-06T11:34:36;9.30;99.90
24017;DHT22;12222;50.090;19.702;2022-11-06T11:39:50;9.30;99.90
24017;DHT22;12222;50.090;19.702;2022-11-06T11:50:31;9.50;99.90
24017;DHT22;12222;50.090;19.702;2022-11-06T11:55:38;9.90;99.90
24017;DHT22;12222;50.090;19.702;2022-11-06T12:00:49;10.30;99.90
24017;DHT22;12222;50.090;19.702;2022-11-06T12:05:52;9.60;99.90
24017;DHT22;12222;50.090;19.702;2022-11-06T12:11:02;9.30;99.90
24017;DHT22;12222;50.090;19.702;2022-11-06T12:16:09;9.20;99.90
24017;DHT22;12222;50.090;19.702;2022-11-06T12:26:40;10.20;99.90
24017;DHT22;12222;50.090;19.702;2022-11-06T12:42:40;9.40;99.90
24017;DHT22;12222;50.090;19.702;2022-11-06T12:48:01;9.20;99.90
24017;DHT22;12222;50.090;19.702;2022-11-06T12:53:19;9.20;99.90
24017;DHT22;12222;50.090;19.702;2022-11-06T13:04:13;9.00;99.90
24017;DHT22;12222;50.090;19.702;2022-11-06T13:09:27;9.20;99.90
24017;DHT22;12222;50.090;19.702;2022-11-06T13:14:37;9.20;99.90
24017;DHT22;12222;50.090;19.702;2022-11-06T13:25:17;9.00;99.90
24017;DHT22;12222;50.090;19.702;2022-11-06T13:30:22;8.80;99.90
24017;DHT22;12222;50.090;19.702;2022-11-06T13:35:27;8.70;99.90
24017;DHT22;12222;50.090;19.702;2022-11-06T13:40:33;8.60;99.90
24017;DHT22;12222;50.090;19.702;2022-11-06T13:51:32;8.40;99.90
24017;DHT22;12222;50.090;19.702;2022-11-06T14:07:43;8.30;99.90
24017;DHT22;12222;50.090;19.702;2022-11-06T14:12:46;8.30;99.90
24017;DHT22;12222;50.090;19.702;2022-11-06T14:17:57;8.30;99.90
24017;DHT22;12222;50.090;19.702;2022-11-06T14:28:35;8.20;99.90
24017;DHT22;12222;50.090;19.702;2022-11-06T14:38:45;8.10;99.90
24017;DHT22;12222;50.090;19.702;2022-11-06T14:43:49;8.10;99.90
24017;DHT22;12222;50.090;19.702;2022-11-06T14:48:54;8.00;99.90
24017;DHT22;12222;50.090;19.702;2022-11-06T14:54:16;8.10;99.90
24017;DHT22;12222;50.090;19.702;2022-11-06T14:59:38;7.90;99.90
24017;DHT22;12222;50.090;19.702;2022-11-06T15:04:44;7.90;99.90
24017;DHT22;12222;50.090;19.702;2022-11-06T15:09:48;7.80;99.90
24017;DHT22;12222;50.090;19.702;2022-11-06T15:14:51;7.70;99.90
24017;DHT22;12222;50.090;19.702;2022-11-06T15:20:00;7.40;99.90
24017;DHT22;12222;50.090;19.702;2022-11-06T15:30:18;6.90;99.90
24017;DHT22;12222;50.090;19.702;2022-11-06T15:35:25;6.80;99.90
24017;DHT22;12222;50.090;19.702;2022-11-06T15:40:29;6.60;99.90
24017;DHT22;12222;50.090;19.702;2022-11-06T15:45:32;6.40;99.90
24017;DHT22;12222;50.090;19.702;2022-11-06T15:50:36;6.40;99.90
24017;DHT22;12222;50.090;19.702;2022-11-06T15:56:00;6.40;99.90
24017;DHT22;12222;50.090;19.702;2022-11-06T16:01:06;6.30;99.90
24017;DHT22;12222;50.090;19.702;2022-11-06T16:06:08;6.40;99.90
24017;DHT22;12222;50.090;19.702;2022-11-06T16:11:13;6.40;99.90
24017;DHT22;12222;50.090;19.702;2022-11-06T16:16:38;6.40;99.90
24017;DHT22;12222;50.090;19.702;2022-11-06T16:21:49;6.70;99.90
24017;DHT22;12222;50.090;19.702;2022-11-06T16:26:52;6.70;99.90
24017;DHT22;12222;50.090;19.702;2022-11-06T16:32:17;6.90;99.90
24017;DHT22;12222;50.090;19.702;2022-11-06T16:42:32;7.00;99.90
24017;DHT22;12222;50.090;19.702;2022-11-06T16:47:35;7.10;99.90
24017;DHT22;12222;50.090;19.702;2022-11-06T16:52:38;7.10;99.90
24017;DHT22;12222;50.090;19.702;2022-11-06T16:57:53;7.00;99.90
24017;DHT22;12222;50.090;19.702;2022-11-06T17:03:02;7.00;99.90
24017;DHT22;12222;50.090;19.702;2022-11-06T17:13:25;7.20;99.90
24017;DHT22;12222;50.090;19.702;2022-11-06T17:18:33;7.20;99.90
24017;DHT22;12222;50.090;19.702;2022-11-06T17:23:35;7.20;99.90
24017;DHT22;12222;50.090;19.702;2022-11-06T17:28:37;7.30;99.90
24017;DHT22;12222;50.090;19.702;2022-11-06T17:33:40;7.50;99.90
24017;DHT22;12222;50.090;19.702;2022-11-06T17:38:43;7.70;99.90
24017;DHT22;12222;50.090;19.702;2022-11-06T17:43:45;7.60;99.90
24017;DHT22;12222;50.090;19.702;2022-11-06T17:48:47;7.70;99.90
24017;DHT22;12222;50.090;19.702;2022-11-06T17:53:49;7.80;99.90
24017;DHT22;12222;50.090;19.702;2022-11-06T17:58:50;7.80;99.90
24017;DHT22;12222;50.090;19.702;2022-11-06T18:03:53;7.80;99.90
24017;DHT22;12222;50.090;19.702;2022-11-06T18:08:56;7.80;99.90
24017;DHT22;12222;50.090;19.702;2022-11-06T18:13:58;7.90;99.90
24017;DHT22;12222;50.090;19.702;2022-11-06T18:19:00;7.90;99.90
24017;DHT22;12222;50.090;19.702;2022-11-06T18:24:02;7.90;99.90
24017;DHT22;12222;50.090;19.702;2022-11-06T18:29:05;7.80;99.90
24017;DHT22;12222;50.090;19.702;2022-11-06T18:34:12;7.90;99.90
24017;DHT22;12222;50.090;19.702;2022-11-06T18:39:20;7.80;99.90
24017;DHT22;12222;50.090;19.702;2022-11-06T18:44:22;7.80;99.90
24017;DHT22;12222;50.090;19.702;2022-11-06T18:49:24;7.90;99.90
24017;DHT22;12222;50.090;19.702;2022-11-06T18:54:28;7.90;99.90
24017;DHT22;12222;50.090;19.702;2022-11-06T18:59:30;7.80;99.90
24017;DHT22;12222;50.090;19.702;2022-11-06T19:04:32;7.80;99.90
24017;DHT22;12222;50.090;19.702;2022-11-06T19:09:34;7.70;99.90
24017;DHT22;12222;50.090;19.702;2022-11-06T19:14:36;7.70;99.90
24017;DHT22;12222;50.090;19.702;2022-11-06T19:19:38;7.70;99.90
24017;DHT22;12222;50.090;19.702;2022-11-06T19:24:40;7.70;99.90
24017;DHT22;12222;50.090;19.702;2022-11-06T19:29:42;7.70;99.90
24017;DHT22;12222;50.090;19.702;2022-11-06T19:34:44;7.70;99.90
24017;DHT22;12222;50.090;19.702;2022-11-06T19:39:45;7.70;99.90
24017;DHT22;12222;50.090;19.702;2022-11-06T19:44:47;7.60;99.90
24017;DHT22;12222;50.090;19.702;2022-11-06T19:49:49;7.50;99.90
24017;DHT22;12222;50.090;19.702;2022-11-06T19:54:51;7.40;99.90
24017;DHT22;12222;50.090;19.702;2022-11-06T20:00:13;7.40;99.90
24017;DHT22;12222;50.090;19.702;2022-11-06T20:05:15;7.40;99.90
24017;DHT22;12222;50.090;19.702;2022-11-06T20:10:17;7.30;99.90
24017;DHT22;12222;50.090;19.702;2022-11-06T20:15:19;7.30;99.90
24017;DHT22;12222;50.090;19.702;2022-11-06T20:20:25;7.10;99.90
24017;DHT22;12222;50.090;19.702;2022-11-06T20:25:36;6.90;99.90
24017;DHT22;12222;50.090;19.702;2022-11-06T20:30:38;6.70;99.90
24017;DHT22;12222;50.090;19.702;2022-11-06T20:35:40;6.80;99.90
24017;DHT22;12222;50.090;19.702;2022-11-06T20:40:42;7.00;99.90
24017;DHT22;12222;50.090;19.702;2022-11-06T20:45:44;7.10;99.90
24017;DHT22;12222;50.090;19.702;2022-11-06T20:50:56;7.10;99.90
24017;DHT22;12222;50.090;19.702;2022-11-06T20:56:00;7.10;99.90
24017;DHT22;12222;50.090;19.702;2022-11-06T21:01:08;7.00;99.90
24017;DHT22;12222;50.090;19.702;2022-11-06T21:06:11;7.10;99.90
24017;DHT22;12222;50.090;19.702;2022-11-06T21:11:24;7.00;99.90
24017;DHT22;12222;50.090;19.702;2022-11-06T21:16:29;6.90;99.90
24017;DHT22;12222;50.090;19.702;2022-11-06T21:21:33;6.90;99.90
24017;DHT22;12222;50.090;19.702;2022-11-06T21:26:36;6.70;99.90
24017;DHT22;12222;50.090;19.702;2022-11-06T21:31:38;6.70;99.90
24017;DHT22;12222;50.090;19.702;2022-11-06T21:36:49;6.80;99.90
24017;DHT22;12222;50.090;19.702;2022-11-06T21:41:51;6.90;99.90
24017;DHT22;12222;50.090;19.702;2022-11-06T21:46:53;6.90;99.90
24017;DHT22;12222;50.090;19.702;2022-11-06T21:51:54;7.10;99.90
24017;DHT22;12222;50.090;19.702;2022-11-06T21:57:16;7.20;99.90
24017;DHT22;12222;50.090;19.702;2022-11-06T22:02:18;7.20;99.90
24017;DHT22;12222;50.090;19.702;2022-11-06T22:07:20;7.30;99.90
24017;DHT22;12222;50.090;19.702;2022-11-06T22:12:22;7.30;99.90
24017;DHT22;12222;50.090;19.702;2022-11-06T22:17:24;7.30;99.90
24017;DHT22;12222;50.090;19.702;2022-11-06T22:22:26;7.40;99.90
24017;DHT22;12222;50.090;19.702;2022-11-06T22:27:28;7.40;99.90
24017;DHT22;12222;50.090;19.702;2022-11-06T22:32:30;7.40;99.90
24017;DHT22;12222;50.090;19.702;2022-11-06T22:37:32;7.40;99.90
24017;DHT22;12222;50.090;19.702;2022-11-06T22:42:33;7.40;99.90
24017;DHT22;12222;50.090;19.702;2022-11-06T22:47:35;7.40;99.90
24017;DHT22;12222;50.090;19.702;2022-11-06T22:52:37;7.40;99.90
24017;DHT22;12222;50.090;19.702;2022-11-06T22:57:39;7.30;99.90
24017;DHT22;12222;50.090;19.702;2022-11-06T23:02:41;7.30;99.90
24017;DHT22;12222;50.090;19.702;2022-11-06T23:07:43;7.20;99.90
24017;DHT22;12222;50.090;19.702;2022-11-06T23:12:45;7.20;99.90
24017;DHT22;12222;50.090;19.702;2022-11-06T23:17:46;7.20;99.90
24017;DHT22;12222;50.090;19.702;2022-11-06T23:22:50;7.20;99.90
24017;DHT22;12222;50.090;19.702;2022-11-06T23:27:52;7.20;99.90
24017;DHT22;12222;50.090;19.702;2022-11-06T23:32:54;7.30;99.90
24017;DHT22;12222;50.090;19.702;2022-11-06T23:37:56;7.30;99.90
24017;DHT22;12222;50.090;19.702;2022-11-06T23:42:57;7.30;99.90
24017;DHT22;12222;50.090;19.702;2022-11-06T23:47:59;7.30;99.90
24017;DHT22;12222;50.090;19.702;2022-11-06T23:53:08;7.30;99.90
24017;DHT22;12222;50.090;19.702;2022-11-06T23:58:10;7.40;99.90
